Time;durP1;ratioP1;P1;durP2;ratioP2;P2;SDS_P1;SDS_P2;PMS_P1;PMS_P2;Temp;Humidity;BMP_temperature;BMP_pressure;BME280_temperature;BME280_humidity;BME280_pressure;Samples;Min_cycle;Max_cycle;Signal;HPM_P1;HPM_P2
2023/03/05 00:00:51;;;;;;;21.43;14.70;;;;;;;;;;6248354;28;20193;-58
2023/03/05 00:03:53;;;;;;;20.30;13.43;;;;;;;;;;6268217;28;20201;-58
2023/03/05 00:06:54;;;;;;;19.47;13.27;;;;;;;;;;6260028;28;20218;-58
2023/03/05 00:09:58;;;;;;;18.70;12.53;;;;;;;;;;6257825;28;20265;-58
2023/03/05 00:12:59;;;;;;;16.87;11.20;;;;;;;;;;6270346;28;20208;-57
2023/03/05 00:16:03;;;;;;;21.70;12.57;;;;;;;;;;6242691;28;20243;-59
2023/03/05 00:19:04;;;;;;;16.87;11.03;;;;;;;;;;6264076;28;20186;-58
2023/03/05 00:22:05;;;;;;;15.17;11.53;;;;;;;;;;6265316;28;20187;-58
2023/03/05 00:25:06;;;;;;;23.10;14.13;;;;;;;;;;6246324;28;20220;-57
2023/03/05 00:28:08;;;;;;;22.00;13.97;;;;;;;;;;6238661;28;20198;-57
2023/03/05 00:31:09;;;;;;;20.80;14.63;;;;;;;;;;6261775;28;20260;-57
2023/03/05 00:34:12;;;;;;;22.20;15.30;;;;;;;;;;6256359;28;20217;-56
2023/03/05 00:37:13;;;;;;;23.03;15.17;;;;;;;;;;6252921;28;20186;-57
2023/03/05 00:40:14;;;;;;;21.00;14.50;;;;;;;;;;6268185;28;20190;-58
2023/03/05 00:43:15;;;;;;;20.83;14.43;;;;;;;;;;6248876;28;20197;-57
2023/03/05 00:46:16;;;;;;;22.37;14.87;;;;;;;;;;6261651;28;20201;-58
2023/03/05 00:49:17;;;;;;;20.63;13.63;;;;;;;;;;6237226;28;20202;-58
2023/03/05 00:52:18;;;;;;;25.80;15.80;;;;;;;;;;6246682;28;20241;-58
2023/03/05 00:55:20;;;;;;;22.70;14.60;;;;;;;;;;6267619;28;20304;-58
2023/03/05 00:58:21;;;;;;;20.90;13.70;;;;;;;;;;6257349;28;20231;-58
2023/03/05 01:01:22;;;;;;;23.00;15.17;;;;;;;;;;6272288;28;20208;-58
2023/03/05 01:04:23;;;;;;;21.63;14.67;;;;;;;;;;6248165;28;20248;-58
2023/03/05 01:07:24;;;;;;;23.37;14.90;;;;;;;;;;6251778;28;20201;-57
2023/03/05 01:10:25;;;;;;;23.00;14.87;;;;;;;;;;6267862;28;20661;-58
2023/03/05 01:13:26;;;;;;;25.10;16.13;;;;;;;;;;6276975;28;20210;-58
2023/03/05 01:16:27;;;;;;;23.40;16.17;;;;;;;;;;6268107;28;20186;-57
2023/03/05 01:19:29;;;;;;;22.73;14.93;;;;;;;;;;6265364;28;20190;-59
2023/03/05 01:22:30;;;;;;;24.17;14.90;;;;;;;;;;6266960;28;20198;-58
2023/03/05 01:25:31;;;;;;;26.63;16.47;;;;;;;;;;6259282;28;20667;-58
2023/03/05 01:28:32;;;;;;;28.77;15.77;;;;;;;;;;6270398;28;20272;-58
2023/03/05 01:31:33;;;;;;;24.23;16.37;;;;;;;;;;6260762;28;20205;-58
2023/03/05 01:34:36;;;;;;;23.63;15.03;;;;;;;;;;6259450;28;20217;-57
2023/03/05 01:37:37;;;;;;;25.70;16.17;;;;;;;;;;6275711;28;20284;-58
2023/03/05 01:40:38;;;;;;;24.30;16.73;;;;;;;;;;6250809;28;20194;-58
2023/03/05 01:43:40;;;;;;;30.83;16.40;;;;;;;;;;6267441;28;20220;-58
2023/03/05 01:46:41;;;;;;;24.07;16.00;;;;;;;;;;6261651;28;20185;-58
2023/03/05 01:49:42;;;;;;;23.53;15.63;;;;;;;;;;6249676;28;20194;-58
2023/03/05 01:52:49;;;;;;;30.50;17.33;;;;;;;;;;6253268;28;20268;-58
2023/03/05 01:55:50;;;;;;;25.30;16.97;;;;;;;;;;6275972;28;20193;-58
2023/03/05 01:58:51;;;;;;;23.47;15.93;;;;;;;;;;6275870;28;20180;-58
2023/03/05 02:01:54;;;;;;;23.83;16.27;;;;;;;;;;6258279;28;20216;-58
2023/03/05 02:04:58;;;;;;;23.87;16.20;;;;;;;;;;6269215;28;20278;-58
2023/03/05 02:08:00;;;;;;;23.70;15.27;;;;;;;;;;6264928;28;20205;-58
2023/03/05 02:11:01;;;;;;;25.80;15.53;;;;;;;;;;6261519;28;20197;-58
2023/03/05 02:14:04;;;;;;;24.93;16.73;;;;;;;;;;6267470;28;20571;-58
2023/03/05 02:17:05;;;;;;;24.87;16.03;;;;;;;;;;6263388;28;20281;-58
2023/03/05 02:20:09;;;;;;;26.17;17.37;;;;;;;;;;6246161;28;20196;-57
2023/03/05 02:23:10;;;;;;;25.50;16.40;;;;;;;;;;6266627;28;20189;-58
2023/03/05 02:26:11;;;;;;;24.10;14.83;;;;;;;;;;6259888;28;20239;-58
2023/03/05 02:29:15;;;;;;;24.80;16.40;;;;;;;;;;6245801;28;20240;-55
2023/03/05 02:32:16;;;;;;;25.97;15.47;;;;;;;;;;6264020;28;20222;-58
2023/03/05 02:35:17;;;;;;;21.63;14.57;;;;;;;;;;6264045;28;20202;-58
2023/03/05 02:38:19;;;;;;;26.00;16.20;;;;;;;;;;6263961;28;20222;-58
2023/03/05 02:41:20;;;;;;;24.87;15.97;;;;;;;;;;6258020;28;20194;-58
2023/03/05 02:44:21;;;;;;;24.00;15.23;;;;;;;;;;6243826;28;20340;-58
2023/03/05 02:47:22;;;;;;;25.57;15.93;;;;;;;;;;6261115;28;20231;-58
2023/03/05 02:50:24;;;;;;;24.47;15.87;;;;;;;;;;6262356;28;20194;-59
2023/03/05 02:53:25;;;;;;;23.53;15.57;;;;;;;;;;6243651;28;20234;-58
2023/03/05 02:56:26;;;;;;;21.37;15.37;;;;;;;;;;6248181;28;20194;-58
2023/03/05 02:59:27;;;;;;;24.07;16.37;;;;;;;;;;6274717;28;20196;-58
2023/03/05 03:02:28;;;;;;;24.27;15.97;;;;;;;;;;6272923;28;20193;-58
2023/03/05 03:05:29;;;;;;;25.37;16.30;;;;;;;;;;6236077;28;20209;-57
2023/03/05 03:08:30;;;;;;;25.53;16.67;;;;;;;;;;6252037;28;20190;-58
2023/03/05 03:11:31;;;;;;;24.50;17.07;;;;;;;;;;6259048;28;20202;-58
2023/03/05 03:14:37;;;;;;;24.97;16.17;;;;;;;;;;6245236;28;20225;-58
2023/03/05 03:17:38;;;;;;;26.50;16.27;;;;;;;;;;6251158;28;20223;-58
2023/03/05 03:20:39;;;;;;;23.63;16.53;;;;;;;;;;6255881;28;20243;-58
2023/03/05 03:23:40;;;;;;;28.17;16.03;;;;;;;;;;6264524;28;20189;-57
2023/03/05 03:26:42;;;;;;;26.07;16.40;;;;;;;;;;6248780;28;20190;-58
2023/03/05 03:29:43;;;;;;;25.17;15.93;;;;;;;;;;6239359;28;20237;-58
2023/03/05 03:32:44;;;;;;;27.13;16.77;;;;;;;;;;6240656;28;20297;-58
2023/03/05 03:35:45;;;;;;;24.23;15.47;;;;;;;;;;6280434;28;20184;-58
2023/03/05 03:38:46;;;;;;;23.73;15.63;;;;;;;;;;6266699;28;20193;-58
2023/03/05 03:41:49;;;;;;;27.33;16.10;;;;;;;;;;6248205;28;20205;-58
2023/03/05 03:44:50;;;;;;;25.10;15.90;;;;;;;;;;6266883;28;20202;-58
2023/03/05 03:47:51;;;;;;;28.37;16.17;;;;;;;;;;6261314;28;20183;-58
2023/03/05 03:50:53;;;;;;;25.60;16.10;;;;;;;;;;6243742;28;20197;-58
2023/03/05 03:53:54;;;;;;;26.73;16.37;;;;;;;;;;6250489;28;20212;-58
2023/03/05 03:56:55;;;;;;;24.40;16.13;;;;;;;;;;6263495;28;20187;-57
2023/03/05 03:59:56;;;;;;;25.23;15.90;;;;;;;;;;6253606;28;20200;-57
2023/03/05 04:02:57;;;;;;;22.20;15.50;;;;;;;;;;6256091;28;20201;-58
2023/03/05 04:05:58;;;;;;;25.83;16.67;;;;;;;;;;6248195;28;20196;-58
2023/03/05 04:09:00;;;;;;;25.00;16.07;;;;;;;;;;6247079;28;20289;-58
2023/03/05 04:12:01;;;;;;;24.47;15.03;;;;;;;;;;6253946;28;20328;-58
2023/03/05 04:15:02;;;;;;;21.60;15.20;;;;;;;;;;6248803;28;20285;-58
2023/03/05 04:18:03;;;;;;;24.43;16.77;;;;;;;;;;6262609;28;20248;-58
2023/03/05 04:21:04;;;;;;;24.03;15.03;;;;;;;;;;6246556;28;20194;-58
2023/03/05 04:24:07;;;;;;;23.87;14.53;;;;;;;;;;6246164;28;20282;-58
2023/03/05 04:27:08;;;;;;;24.77;15.37;;;;;;;;;;6262620;28;20223;-57
2023/03/05 04:30:13;;;;;;;23.30;14.67;;;;;;;;;;6273391;28;20250;-58
2023/03/05 04:33:14;;;;;;;23.73;14.67;;;;;;;;;;6264944;28;20220;-58
2023/03/05 04:36:15;;;;;;;22.03;14.70;;;;;;;;;;6257640;28;20197;-54
2023/03/05 04:39:19;;;;;;;25.03;15.07;;;;;;;;;;6256218;28;20284;-58
2023/03/05 04:42:20;;;;;;;20.70;14.67;;;;;;;;;;6254519;28;20229;-58
2023/03/05 04:45:21;;;;;;;26.17;15.03;;;;;;;;;;6247042;28;20221;-57
2023/03/05 04:48:22;;;;;;;23.47;15.40;;;;;;;;;;6256381;28;20195;-58
2023/03/05 04:51:24;;;;;;;25.43;16.43;;;;;;;;;;6260861;28;20205;-58
2023/03/05 04:54:25;;;;;;;23.47;15.53;;;;;;;;;;6268218;28;20225;-58
2023/03/05 04:57:26;;;;;;;24.10;14.87;;;;;;;;;;6276920;28;20195;-58
2023/03/05 05:00:27;;;;;;;26.50;16.80;;;;;;;;;;6250661;28;20194;-57
2023/03/05 05:03:28;;;;;;;24.50;15.90;;;;;;;;;;6247923;28;20205;-56
2023/03/05 05:06:29;;;;;;;25.13;16.13;;;;;;;;;;6262735;28;20269;-59
2023/03/05 05:09:30;;;;;;;21.20;14.20;;;;;;;;;;6267777;28;20198;-57
2023/03/05 05:12:31;;;;;;;23.30;15.23;;;;;;;;;;6252983;28;20226;-59
2023/03/05 05:15:32;;;;;;;23.23;14.57;;;;;;;;;;6265617;28;20287;-58
2023/03/05 05:18:33;;;;;;;22.93;15.27;;;;;;;;;;6276408;28;20242;-57
2023/03/05 05:21:35;;;;;;;23.97;15.70;;;;;;;;;;6241955;28;20199;-59
2023/03/05 05:24:36;;;;;;;23.00;14.57;;;;;;;;;;6274691;28;20196;-57
2023/03/05 05:27:38;;;;;;;21.00;14.13;;;;;;;;;;6258516;28;20241;-59
2023/03/05 05:30:39;;;;;;;21.07;14.57;;;;;;;;;;6256573;28;20710;-59
2023/03/05 05:33:40;;;;;;;23.33;14.40;;;;;;;;;;6258655;28;20344;-58
2023/03/05 05:36:41;;;;;;;24.87;15.07;;;;;;;;;;6263324;28;20212;-59
2023/03/05 05:39:48;;;;;;;23.80;14.87;;;;;;;;;;6253594;28;20191;-58
2023/03/05 05:42:49;;;;;;;25.80;14.87;;;;;;;;;;6263175;28;20190;-53
2023/03/05 05:45:50;;;;;;;24.53;15.37;;;;;;;;;;6263054;28;20197;-56
2023/03/05 05:48:52;;;;;;;22.70;15.50;;;;;;;;;;6255119;28;20200;-57
2023/03/05 05:51:53;;;;;;;28.00;16.30;;;;;;;;;;6254882;28;20202;-56
2023/03/05 05:54:54;;;;;;;25.20;15.80;;;;;;;;;;6244497;28;20190;-58
2023/03/05 05:57:55;;;;;;;22.70;15.40;;;;;;;;;;6250354;28;20196;-55
2023/03/05 06:00:56;;;;;;;22.57;15.27;;;;;;;;;;6264532;28;20193;-56
2023/03/05 06:03:57;;;;;;;28.07;15.53;;;;;;;;;;6252181;28;20213;-57
2023/03/05 06:06:58;;;;;;;25.13;15.33;;;;;;;;;;6250753;28;20210;-59
2023/03/05 06:09:59;;;;;;;23.90;14.87;;;;;;;;;;6260509;28;20194;-58
2023/03/05 06:13:01;;;;;;;23.03;15.03;;;;;;;;;;6270580;28;20206;-57
2023/03/05 06:16:03;;;;;;;21.47;14.20;;;;;;;;;;6247977;28;20205;-57
2023/03/05 06:19:04;;;;;;;22.57;14.60;;;;;;;;;;6262356;28;20189;-58
2023/03/05 06:22:05;;;;;;;22.27;14.43;;;;;;;;;;6242849;28;20205;-58
2023/03/05 06:25:07;;;;;;;26.27;16.50;;;;;;;;;;6264134;28;20222;-55
2023/03/05 06:28:09;;;;;;;24.10;15.60;;;;;;;;;;6265583;28;20201;-53
2023/03/05 06:31:12;;;;;;;23.67;16.23;;;;;;;;;;6254139;28;20426;-57
2023/03/05 06:34:13;;;;;;;21.43;14.37;;;;;;;;;;6263493;28;20220;-57
2023/03/05 06:37:14;;;;;;;24.87;15.03;;;;;;;;;;6246538;28;20190;-55
2023/03/05 06:40:15;;;;;;;20.63;14.33;;;;;;;;;;6266018;28;20205;-54
2023/03/05 06:43:16;;;;;;;21.50;14.90;;;;;;;;;;6265831;28;20195;-55
2023/03/05 06:46:17;;;;;;;24.17;14.90;;;;;;;;;;6257757;28;20193;-58
2023/03/05 06:49:18;;;;;;;21.93;14.17;;;;;;;;;;6268807;28;20232;-56
2023/03/05 06:52:19;;;;;;;22.70;15.80;;;;;;;;;;6249297;28;20250;-54
2023/03/05 06:55:21;;;;;;;23.77;15.87;;;;;;;;;;6245777;28;20220;-55
2023/03/05 06:58:22;;;;;;;21.97;14.83;;;;;;;;;;6246196;28;20304;-55
2023/03/05 07:01:23;;;;;;;23.13;15.10;;;;;;;;;;6269273;28;20190;-57
2023/03/05 07:04:24;;;;;;;25.83;16.07;;;;;;;;;;6272969;28;20193;-56
2023/03/05 07:07:25;;;;;;;23.53;15.80;;;;;;;;;;6266339;28;20200;-57
2023/03/05 07:10:26;;;;;;;23.77;15.70;;;;;;;;;;6258226;28;20203;-57
2023/03/05 07:13:27;;;;;;;25.30;16.30;;;;;;;;;;6268049;28;20221;-57
2023/03/05 07:16:30;;;;;;;27.10;17.03;;;;;;;;;;6282150;28;20192;-56
2023/03/05 07:19:31;;;;;;;26.33;14.93;;;;;;;;;;6259379;28;20186;-55
2023/03/05 07:22:32;;;;;;;24.27;16.43;;;;;;;;;;6249323;28;20193;-57
2023/03/05 07:25:35;;;;;;;24.73;16.13;;;;;;;;;;6263759;28;20204;-57
2023/03/05 07:28:36;;;;;;;25.73;15.90;;;;;;;;;;6249371;28;20323;-57
2023/03/05 07:31:37;;;;;;;25.87;16.13;;;;;;;;;;6254570;28;20289;-56
2023/03/05 07:34:38;;;;;;;23.07;15.40;;;;;;;;;;6252864;28;20220;-54
2023/03/05 07:37:39;;;;;;;21.93;15.43;;;;;;;;;;6254851;28;20216;-54
2023/03/05 07:40:40;;;;;;;27.77;16.07;;;;;;;;;;6271036;28;20182;-54
2023/03/05 07:43:41;;;;;;;24.13;16.07;;;;;;;;;;6234848;28;20194;-52
2023/03/05 07:46:43;;;;;;;23.93;15.37;;;;;;;;;;6248458;28;20218;-55
2023/03/05 07:49:45;;;;;;;21.97;15.80;;;;;;;;;;6263048;28;20285;-56
2023/03/05 07:52:46;;;;;;;25.83;16.90;;;;;;;;;;6259931;28;20304;-57
2023/03/05 07:55:47;;;;;;;25.80;16.13;;;;;;;;;;6264725;28;20236;-55
2023/03/05 07:58:48;;;;;;;24.70;16.90;;;;;;;;;;6254487;28;20209;-55
2023/03/05 08:01:49;;;;;;;26.47;16.73;;;;;;;;;;6254697;28;20190;-58
2023/03/05 08:04:50;;;;;;;22.47;16.50;;;;;;;;;;6264595;28;20194;-57
2023/03/05 08:07:51;;;;;;;21.90;15.40;;;;;;;;;;6263679;28;20286;-56
2023/03/05 08:10:52;;;;;;;25.37;16.57;;;;;;;;;;6253875;28;20190;-56
2023/03/05 08:13:53;;;;;;;25.47;15.10;;;;;;;;;;6267360;28;20233;-59
2023/03/05 08:16:54;;;;;;;21.30;14.87;;;;;;;;;;6265610;28;20213;-57
2023/03/05 08:19:58;;;;;;;24.43;17.63;;;;;;;;;;6235459;28;20194;-55
2023/03/05 08:22:59;;;;;;;23.93;18.10;;;;;;;;;;6253862;28;20201;-54
2023/03/05 08:26:01;;;;;;;25.83;16.80;;;;;;;;;;6257971;28;20279;-56
2023/03/05 08:29:02;;;;;;;26.13;17.63;;;;;;;;;;6261657;28;20237;-57
2023/03/05 08:32:03;;;;;;;24.90;17.83;;;;;;;;;;6263064;28;20202;-54
2023/03/05 08:35:05;;;;;;;22.33;15.73;;;;;;;;;;6255157;28;20222;-58
2023/03/05 08:38:06;;;;;;;25.23;16.93;;;;;;;;;;6269911;28;20281;-58
2023/03/05 08:41:07;;;;;;;26.37;17.73;;;;;;;;;;6239653;28;20205;-58
2023/03/05 08:44:08;;;;;;;20.43;14.97;;;;;;;;;;6255385;28;20204;-59
2023/03/05 08:47:09;;;;;;;25.27;16.80;;;;;;;;;;6266351;28;20187;-59
2023/03/05 08:50:11;;;;;;;22.77;15.77;;;;;;;;;;6256923;28;20248;-60
2023/03/05 08:53:12;;;;;;;22.23;16.93;;;;;;;;;;6254989;28;20299;-59
2023/03/05 08:56:13;;;;;;;22.37;16.23;;;;;;;;;;6261684;28;20190;-59
2023/03/05 08:59:14;;;;;;;27.37;16.33;;;;;;;;;;6256169;28;20244;-58
2023/03/05 09:02:15;;;;;;;23.77;17.00;;;;;;;;;;6243659;28;20270;-59
2023/03/05 09:05:18;;;;;;;26.07;15.93;;;;;;;;;;6249650;28;20201;-58
2023/03/05 09:08:19;;;;;;;26.57;18.30;;;;;;;;;;6265230;28;20208;-56
2023/03/05 09:11:20;;;;;;;25.17;16.67;;;;;;;;;;6239766;28;20194;-55
2023/03/05 09:14:21;;;;;;;25.67;17.73;;;;;;;;;;6244927;28;20260;-57
2023/03/05 09:17:23;;;;;;;24.90;18.63;;;;;;;;;;6261508;28;20204;-55
2023/03/05 09:20:24;;;;;;;22.33;16.57;;;;;;;;;;6275312;28;20205;-56
2023/03/05 09:23:25;;;;;;;24.93;17.27;;;;;;;;;;6266644;28;20248;-56
2023/03/05 09:26:26;;;;;;;26.83;17.93;;;;;;;;;;6259164;28;20204;-57
2023/03/05 09:29:29;;;;;;;24.03;17.20;;;;;;;;;;6263659;28;20234;-56
2023/03/05 09:32:30;;;;;;;24.53;17.87;;;;;;;;;;6253069;28;20217;-55
2023/03/05 09:35:36;;;;;;;24.07;18.00;;;;;;;;;;6277051;28;20213;-55
2023/03/05 09:38:39;;;;;;;22.33;16.57;;;;;;;;;;6268574;28;20240;-52
2023/03/05 09:41:43;;;;;;;23.07;17.10;;;;;;;;;;6270360;28;20217;-57
2023/03/05 09:44:56;;;;;;;24.57;18.07;;;;;;;;;;6269418;28;20221;-56
2023/03/05 09:48:00;;;;;;;23.43;15.53;;;;;;;;;;6264509;28;20221;-56
2023/03/05 09:51:03;;;;;;;23.20;15.80;;;;;;;;;;6266352;28;20282;-58
2023/03/05 09:54:17;;;;;;;21.40;16.03;;;;;;;;;;6264962;28;20313;-57
2023/03/05 09:57:21;;;;;;;22.07;16.80;;;;;;;;;;6258969;28;20397;-56
2023/03/05 10:00:38;;;;;;;21.33;16.47;;;;;;;;;;6268384;28;20278;-58
2023/03/05 10:03:44;;;;;;;22.83;15.70;;;;;;;;;;6263768;28;20203;-57
2023/03/05 10:06:45;;;;;;;22.13;17.07;;;;;;;;;;6272325;28;20222;-58
2023/03/05 10:09:54;;;;;;;18.30;14.70;;;;;;;;;;6271729;28;20217;-58
2023/03/05 10:12:57;;;;;;;19.80;15.20;;;;;;;;;;6254999;28;20211;-57
2023/03/05 10:16:01;;;;;;;20.90;15.60;;;;;;;;;;6257945;28;20195;-57
2023/03/05 10:19:11;;;;;;;17.87;14.53;;;;;;;;;;6274533;28;20245;-58
2023/03/05 10:22:15;;;;;;;19.00;14.03;;;;;;;;;;6269037;28;20209;-57
2023/03/05 10:25:20;;;;;;;19.77;15.87;;;;;;;;;;6270495;28;20228;-56
2023/03/05 10:28:29;;;;;;;18.83;15.20;;;;;;;;;;6258609;28;20227;-57
2023/03/05 10:31:50;;;;;;;18.67;14.43;;;;;;;;;;6266531;28;20281;-57
2023/03/05 10:35:00;;;;;;;23.50;15.23;;;;;;;;;;6249790;28;20319;-58
2023/03/05 10:38:20;;;;;;;21.70;14.17;;;;;;;;;;6254024;28;20194;-56
2023/03/05 10:41:31;;;;;;;17.83;14.07;;;;;;;;;;6255102;28;20194;-55
2023/03/05 10:44:38;;;;;;;20.17;15.27;;;;;;;;;;6270303;28;20201;-57
2023/03/05 10:47:53;;;;;;;23.80;15.23;;;;;;;;;;6264129;28;20218;-58
2023/03/05 10:51:10;;;;;;;18.53;13.87;;;;;;;;;;6263023;28;20206;-57
2023/03/05 10:54:18;;;;;;;19.83;14.00;;;;;;;;;;6265430;28;20210;-57
2023/03/05 10:57:19;;;;;;;20.00;13.87;;;;;;;;;;6266544;28;20194;-57
2023/03/05 11:00:20;;;;;;;19.50;13.17;;;;;;;;;;6268978;28;20185;-57
2023/03/05 11:03:21;;;;;;;19.10;14.17;;;;;;;;;;6273379;28;20197;-56
2023/03/05 11:06:28;;;;;;;19.30;13.67;;;;;;;;;;6257528;28;20288;-57
2023/03/05 11:09:31;;;;;;;22.10;13.97;;;;;;;;;;6260268;28;20195;-57
2023/03/05 11:12:33;;;;;;;19.33;13.10;;;;;;;;;;6257900;28;20206;-58
2023/03/05 11:15:35;;;;;;;21.23;14.40;;;;;;;;;;6265188;28;20210;-56
2023/03/05 11:18:36;;;;;;;18.57;14.67;;;;;;;;;;6271023;28;20197;-59
2023/03/05 11:21:37;;;;;;;18.23;12.80;;;;;;;;;;6251459;28;20194;-57
2023/03/05 11:24:40;;;;;;;18.50;13.77;;;;;;;;;;6250053;28;20197;-58
2023/03/05 11:27:49;;;;;;;21.20;13.97;;;;;;;;;;6250507;28;20205;-57
2023/03/05 11:30:59;;;;;;;18.50;13.17;;;;;;;;;;6270497;28;20234;-57
2023/03/05 11:34:04;;;;;;;18.90;14.33;;;;;;;;;;6263654;28;20218;-58
2023/03/05 11:37:06;;;;;;;19.03;14.67;;;;;;;;;;6260520;28;20235;-59
2023/03/05 11:40:15;;;;;;;18.60;15.63;;;;;;;;;;6238831;28;20190;-57
2023/03/05 11:43:22;;;;;;;19.17;13.90;;;;;;;;;;6257617;28;20201;-57
2023/03/05 11:46:23;;;;;;;16.53;13.17;;;;;;;;;;6265423;28;20190;-57
2023/03/05 11:49:26;;;;;;;19.40;14.67;;;;;;;;;;6249161;28;20209;-57
2023/03/05 11:52:30;;;;;;;15.63;12.87;;;;;;;;;;6263636;28;20213;-57
2023/03/05 11:55:43;;;;;;;19.60;14.37;;;;;;;;;;6245981;28;20281;-57
2023/03/05 11:59:00;;;;;;;19.63;14.47;;;;;;;;;;6261312;28;20183;-57
2023/03/05 12:02:02;;;;;;;20.73;14.17;;;;;;;;;;6256252;28;20270;-57
2023/03/05 12:05:05;;;;;;;20.27;14.47;;;;;;;;;;6254670;28;20210;-56
2023/03/05 12:08:09;;;;;;;17.37;12.57;;;;;;;;;;6262276;28;20218;-57
2023/03/05 12:11:22;;;;;;;15.97;12.67;;;;;;;;;;6260651;28;20225;-53
2023/03/05 12:14:38;;;;;;;18.57;13.87;;;;;;;;;;6267630;28;20210;-55
2023/03/05 12:17:56;;;;;;;16.90;13.23;;;;;;;;;;6262159;28;20191;-57
2023/03/05 12:21:07;;;;;;;20.27;13.83;;;;;;;;;;6256623;28;20190;-57
2023/03/05 12:24:23;;;;;;;19.93;14.57;;;;;;;;;;6265145;28;20195;-56
2023/03/05 12:27:33;;;;;;;19.43;14.30;;;;;;;;;;6259118;28;20268;-58
2023/03/05 12:30:34;;;;;;;18.17;14.20;;;;;;;;;;6255516;28;20258;-56
2023/03/05 12:33:37;;;;;;;20.03;14.07;;;;;;;;;;6254140;28;20207;-55
2023/03/05 12:36:38;;;;;;;17.93;14.37;;;;;;;;;;6256772;28;20251;-57
2023/03/05 12:39:48;;;;;;;23.27;14.70;;;;;;;;;;6266269;28;20209;-57
2023/03/05 12:42:56;;;;;;;15.77;12.53;;;;;;;;;;6264546;28;20188;-57
2023/03/05 12:46:34;;;;;;;16.10;12.33;;;;;;;;;;6271989;28;20214;-57
2023/03/05 12:49:39;;;;;;;23.07;13.63;;;;;;;;;;6214345;28;20281;-55
2023/03/05 12:52:42;;;;;;;15.83;12.90;;;;;;;;;;6268708;28;20295;-57
2023/03/05 12:55:46;;;;;;;20.23;13.47;;;;;;;;;;6272655;28;20184;-57
2023/03/05 12:58:49;;;;;;;15.03;13.03;;;;;;;;;;6269148;28;20193;-57
2023/03/05 13:01:55;;;;;;;15.53;12.77;;;;;;;;;;6274246;28;20218;-55
2023/03/05 13:05:03;;;;;;;18.30;12.87;;;;;;;;;;6263206;28;20191;-56
2023/03/05 13:08:10;;;;;;;16.87;12.60;;;;;;;;;;6252163;28;20190;-57
2023/03/05 13:11:20;;;;;;;15.97;13.17;;;;;;;;;;6272351;28;20187;-57
2023/03/05 13:14:34;;;;;;;17.63;13.53;;;;;;;;;;6270810;28;20218;-58
2023/03/05 13:18:02;;;;;;;15.87;13.57;;;;;;;;;;6271020;28;20192;-56
2023/03/05 13:21:05;;;;;;;18.83;13.67;;;;;;;;;;6264831;28;20199;-58
2023/03/05 13:24:14;;;;;;;16.10;13.33;;;;;;;;;;6261989;28;20201;-58
2023/03/05 13:27:20;;;;;;;19.00;12.33;;;;;;;;;;6269345;28;20538;-59
2023/03/05 13:30:23;;;;;;;15.03;12.20;;;;;;;;;;6260345;28;20334;-58
2023/03/05 13:33:35;;;;;;;16.13;13.00;;;;;;;;;;6269277;28;20373;-59
2023/03/05 13:36:38;;;;;;;14.43;11.97;;;;;;;;;;6265735;28;20188;-57
2023/03/05 13:39:47;;;;;;;19.00;14.43;;;;;;;;;;6264363;28;20203;-59
2023/03/05 13:42:48;;;;;;;16.90;13.30;;;;;;;;;;6271273;28;20187;-55
2023/03/05 13:45:53;;;;;;;14.67;12.13;;;;;;;;;;6269652;28;20186;-57
2023/03/05 13:48:55;;;;;;;16.67;13.30;;;;;;;;;;6281766;28;20198;-58
2023/03/05 13:51:58;;;;;;;15.10;12.80;;;;;;;;;;6258684;28;20194;-58
2023/03/05 13:55:01;;;;;;;19.17;13.30;;;;;;;;;;6262352;28;20203;-58
2023/03/05 13:58:02;;;;;;;16.70;12.93;;;;;;;;;;6272773;28;20201;-54
2023/03/05 14:01:11;;;;;;;15.63;12.10;;;;;;;;;;6271053;28;20191;-56
2023/03/05 14:04:12;;;;;;;14.47;12.23;;;;;;;;;;6272440;28;20197;-56
2023/03/05 14:07:29;;;;;;;18.03;12.93;;;;;;;;;;6263197;28;20205;-56
2023/03/05 14:10:37;;;;;;;14.83;13.30;;;;;;;;;;6269176;28;20194;-56
2023/03/05 14:13:39;;;;;;;14.43;12.50;;;;;;;;;;6271640;28;20249;-55
2023/03/05 14:16:40;;;;;;;15.20;12.37;;;;;;;;;;6265822;28;20194;-56
2023/03/05 14:19:42;;;;;;;14.70;12.30;;;;;;;;;;6262686;28;20194;-56
2023/03/05 14:22:44;;;;;;;13.70;12.20;;;;;;;;;;6251902;28;20193;-56
2023/03/05 14:25:45;;;;;;;14.73;13.00;;;;;;;;;;6265447;28;20187;-55
2023/03/05 14:29:10;;;;;;;16.07;12.87;;;;;;;;;;6272009;28;20333;-53
2023/03/05 14:32:31;;;;;;;12.43;11.13;;;;;;;;;;6274147;28;20202;-56
2023/03/05 14:35:33;;;;;;;19.17;12.33;;;;;;;;;;6264884;28;20186;-56
2023/03/05 14:38:34;;;;;;;14.43;12.93;;;;;;;;;;6241348;28;20221;-57
2023/03/05 14:41:35;;;;;;;14.63;12.67;;;;;;;;;;6266499;28;20272;-57
2023/03/05 14:44:37;;;;;;;13.67;12.33;;;;;;;;;;6267925;28;20186;-57
2023/03/05 14:47:38;;;;;;;14.57;12.73;;;;;;;;;;6269830;28;20254;-58
2023/03/05 14:50:50;;;;;;;14.50;12.93;;;;;;;;;;6248963;28;20270;-58
2023/03/05 14:53:51;;;;;;;13.10;11.77;;;;;;;;;;6266373;28;20234;-58
2023/03/05 14:56:53;;;;;;;14.23;12.77;;;;;;;;;;6265055;28;20243;-58
2023/03/05 14:59:54;;;;;;;13.37;11.97;;;;;;;;;;6266804;28;20206;-58
2023/03/05 15:02:56;;;;;;;14.57;13.07;;;;;;;;;;6259687;28;20198;-57
2023/03/05 15:05:58;;;;;;;13.57;12.27;;;;;;;;;;6270874;28;20197;-57
2023/03/05 15:09:00;;;;;;;15.07;13.57;;;;;;;;;;6268036;28;20217;-56
2023/03/05 15:12:01;;;;;;;14.60;13.10;;;;;;;;;;6272958;28;20196;-58
2023/03/05 15:15:04;;;;;;;14.80;13.30;;;;;;;;;;6254736;28;20244;-58
2023/03/05 15:18:05;;;;;;;16.30;13.03;;;;;;;;;;6248888;28;20202;-58
2023/03/05 15:21:06;;;;;;;13.40;12.00;;;;;;;;;;6269248;28;20196;-58
2023/03/05 15:24:08;;;;;;;13.90;11.77;;;;;;;;;;6248523;28;20198;-57
2023/03/05 15:27:09;;;;;;;14.70;11.97;;;;;;;;;;6267854;28;20190;-56
2023/03/05 15:30:21;;;;;;;14.73;13.20;;;;;;;;;;6271590;28;20310;-55
2023/03/05 15:33:22;;;;;;;15.53;13.40;;;;;;;;;;6249214;28;20210;-56
2023/03/05 15:36:23;;;;;;;17.17;14.43;;;;;;;;;;6267372;28;20190;-57
2023/03/05 15:39:26;;;;;;;14.63;13.07;;;;;;;;;;6255578;28;20193;-55
2023/03/05 15:42:27;;;;;;;16.63;14.07;;;;;;;;;;6261558;28;20869;-55
2023/03/05 15:45:31;;;;;;;16.60;14.67;;;;;;;;;;6249235;28;20231;-56
2023/03/05 15:48:50;;;;;;;16.50;14.67;;;;;;;;;;6260422;28;20194;-56
2023/03/05 15:51:53;;;;;;;17.10;14.37;;;;;;;;;;6247870;28;20202;-55
2023/03/05 15:54:55;;;;;;;15.93;14.10;;;;;;;;;;6249438;28;20252;-57
2023/03/05 15:57:56;;;;;;;19.10;13.93;;;;;;;;;;6273595;28;20189;-57
2023/03/05 16:00:58;;;;;;;17.23;13.57;;;;;;;;;;6268902;28;20191;-57
2023/03/05 16:03:59;;;;;;;17.30;13.53;;;;;;;;;;6251631;28;20205;-55
2023/03/05 16:07:01;;;;;;;22.50;13.73;;;;;;;;;;6260904;28;20200;-57
2023/03/05 16:10:04;;;;;;;17.47;13.37;;;;;;;;;;6239802;28;20196;-57
2023/03/05 16:13:11;;;;;;;17.43;12.40;;;;;;;;;;6257427;28;20230;-57
2023/03/05 16:16:12;;;;;;;18.33;13.90;;;;;;;;;;6253837;28;20187;-58
2023/03/05 16:19:15;;;;;;;19.20;13.10;;;;;;;;;;6269513;28;20191;-58
2023/03/05 16:22:17;;;;;;;17.67;13.50;;;;;;;;;;6272253;28;20236;-58
2023/03/05 16:25:18;;;;;;;14.07;11.93;;;;;;;;;;6273230;28;20194;-58
2023/03/05 16:28:19;;;;;;;21.90;13.23;;;;;;;;;;6263499;28;20294;-59
2023/03/05 16:31:21;;;;;;;15.60;12.53;;;;;;;;;;6244840;28;20483;-58
2023/03/05 16:34:23;;;;;;;17.37;12.00;;;;;;;;;;6255895;28;20217;-57
2023/03/05 16:37:25;;;;;;;16.37;12.73;;;;;;;;;;6274596;28;20190;-54
2023/03/05 16:40:26;;;;;;;15.93;12.53;;;;;;;;;;6266227;28;20285;-56
2023/03/05 16:43:28;;;;;;;19.33;13.63;;;;;;;;;;6252877;28;20202;-56
2023/03/05 16:46:29;;;;;;;16.27;12.20;;;;;;;;;;6274283;28;20185;-53
2023/03/05 16:49:31;;;;;;;17.73;12.07;;;;;;;;;;6252170;28;20369;-54
2023/03/05 16:52:33;;;;;;;17.40;12.30;;;;;;;;;;6259559;28;20255;-55
2023/03/05 16:55:36;;;;;;;19.47;13.07;;;;;;;;;;6263071;28;20190;-55
2023/03/05 16:58:39;;;;;;;16.73;11.93;;;;;;;;;;6280818;28;20194;-53
2023/03/05 17:01:40;;;;;;;15.90;11.23;;;;;;;;;;6266948;28;20189;-55
2023/03/05 17:04:42;;;;;;;16.00;12.43;;;;;;;;;;6261581;28;20220;-55
2023/03/05 17:07:45;;;;;;;15.43;12.03;;;;;;;;;;6268877;28;20285;-55
2023/03/05 17:10:47;;;;;;;18.50;12.57;;;;;;;;;;6279302;28;20277;-55
2023/03/05 17:13:49;;;;;;;16.10;10.93;;;;;;;;;;6245077;28;20206;-55
2023/03/05 17:16:52;;;;;;;13.33;11.27;;;;;;;;;;6258708;28;20190;-56
2023/03/05 17:19:53;;;;;;;16.50;11.30;;;;;;;;;;6260418;28;20183;-56
2023/03/05 17:22:55;;;;;;;16.73;11.57;;;;;;;;;;6259118;28;20201;-56
2023/03/05 17:25:56;;;;;;;17.40;11.43;;;;;;;;;;6259613;28;20194;-56
2023/03/05 17:29:01;;;;;;;13.67;10.67;;;;;;;;;;6256812;28;20232;-56
2023/03/05 17:32:02;;;;;;;17.20;11.47;;;;;;;;;;6278716;28;20205;-58
2023/03/05 17:35:04;;;;;;;13.90;10.10;;;;;;;;;;6250719;28;20281;-58
2023/03/05 17:38:06;;;;;;;14.83;10.40;;;;;;;;;;6273304;28;20196;-58
2023/03/05 17:41:09;;;;;;;16.87;10.97;;;;;;;;;;6266758;28;20217;-60
2023/03/05 17:44:10;;;;;;;16.10;10.90;;;;;;;;;;6261330;28;20244;-61